sensor_id;sensor_type;location;lat;lon;timestamp;temperature;humidity
48806;DHT22;34625;47.176;27.548;2023-04-29T00:01:09;20.90;53.50
48806;DHT22;34625;47.176;27.548;2023-04-29T00:03:35;20.90;53.60
48806;DHT22;34625;47.176;27.548;2023-04-29T00:06:01;20.90;53.50
48806;DHT22;34625;47.176;27.548;2023-04-29T00:08:27;20.90;53.40
48806;DHT22;34625;47.176;27.548;2023-04-29T00:10:53;20.90;53.40
48806;DHT22;34625;47.176;27.548;2023-04-29T00:13:20;20.90;53.40
48806;DHT22;34625;47.176;27.548;2023-04-29T00:15:46;20.90;53.40
48806;DHT22;34625;47.176;27.548;2023-04-29T00:18:12;20.90;53.30
48806;DHT22;34625;47.176;27.548;2023-04-29T00:20:39;21.00;53.20
48806;DHT22;34625;47.176;27.548;2023-04-29T00:23:05;20.90;53.20
48806;DHT22;34625;47.176;27.548;2023-04-29T00:25:32;21.00;53.20
48806;DHT22;34625;47.176;27.548;2023-04-29T00:27:58;21.00;53.20
48806;DHT22;34625;47.176;27.548;2023-04-29T00:30:27;20.90;53.20
48806;DHT22;34625;47.176;27.548;2023-04-29T00:32:54;20.90;53.30
48806;DHT22;34625;47.176;27.548;2023-04-29T00:35:20;20.80;53.20
48806;DHT22;34625;47.176;27.548;2023-04-29T00:37:46;20.80;53.10
48806;DHT22;34625;47.176;27.548;2023-04-29T00:40:12;20.90;53.30
48806;DHT22;34625;47.176;27.548;2023-04-29T00:42:40;20.90;53.30
48806;DHT22;34625;47.176;27.548;2023-04-29T00:45:07;20.70;53.20
48806;DHT22;34625;47.176;27.548;2023-04-29T00:47:33;20.80;53.20
48806;DHT22;34625;47.176;27.548;2023-04-29T00:49:59;20.70;53.20
48806;DHT22;34625;47.176;27.548;2023-04-29T00:52:29;20.80;53.20
48806;DHT22;34625;47.176;27.548;2023-04-29T00:54:56;20.70;53.10
48806;DHT22;34625;47.176;27.548;2023-04-29T00:57:23;20.70;53.20
48806;DHT22;34625;47.176;27.548;2023-04-29T00:59:49;20.80;53.10
48806;DHT22;34625;47.176;27.548;2023-04-29T01:02:15;20.60;53.00
48806;DHT22;34625;47.176;27.548;2023-04-29T01:04:42;20.70;53.00
48806;DHT22;34625;47.176;27.548;2023-04-29T01:07:26;20.70;53.00
48806;DHT22;34625;47.176;27.548;2023-04-29T01:10:05;20.70;52.90
48806;DHT22;34625;47.176;27.548;2023-04-29T01:12:44;20.70;52.80
48806;DHT22;34625;47.176;27.548;2023-04-29T01:15:20;20.80;52.80
48806;DHT22;34625;47.176;27.548;2023-04-29T01:20:23;20.80;52.80
48806;DHT22;34625;47.176;27.548;2023-04-29T01:22:50;20.70;52.80
48806;DHT22;34625;47.176;27.548;2023-04-29T01:25:17;20.70;52.90
48806;DHT22;34625;47.176;27.548;2023-04-29T01:31:33;20.60;52.80
48806;DHT22;34625;47.176;27.548;2023-04-29T01:34:13;20.70;52.90
48806;DHT22;34625;47.176;27.548;2023-04-29T01:36:50;20.60;52.80
48806;DHT22;34625;47.176;27.548;2023-04-29T01:39:38;20.60;52.80
48806;DHT22;34625;47.176;27.548;2023-04-29T01:42:14;20.60;52.80
48806;DHT22;34625;47.176;27.548;2023-04-29T01:44:46;20.60;52.70
48806;DHT22;34625;47.176;27.548;2023-04-29T01:47:13;20.60;52.70
48806;DHT22;34625;47.176;27.548;2023-04-29T01:49:44;20.60;52.80
48806;DHT22;34625;47.176;27.548;2023-04-29T01:52:12;20.60;52.60
48806;DHT22;34625;47.176;27.548;2023-04-29T01:54:39;20.60;52.60
48806;DHT22;34625;47.176;27.548;2023-04-29T01:57:05;20.60;52.50
48806;DHT22;34625;47.176;27.548;2023-04-29T01:59:57;20.60;52.50
48806;DHT22;34625;47.176;27.548;2023-04-29T02:02:48;20.60;52.40
48806;DHT22;34625;47.176;27.548;2023-04-29T02:05:28;20.60;52.30
48806;DHT22;34625;47.176;27.548;2023-04-29T02:08:00;20.70;52.50
48806;DHT22;34625;47.176;27.548;2023-04-29T02:10:26;20.70;52.50
48806;DHT22;34625;47.176;27.548;2023-04-29T02:13:02;20.70;52.50
48806;DHT22;34625;47.176;27.548;2023-04-29T02:15:28;20.50;52.40
48806;DHT22;34625;47.176;27.548;2023-04-29T02:17:54;20.60;52.40
48806;DHT22;34625;47.176;27.548;2023-04-29T02:20:20;20.60;52.40
48806;DHT22;34625;47.176;27.548;2023-04-29T02:22:46;20.50;52.50
48806;DHT22;34625;47.176;27.548;2023-04-29T02:25:13;20.50;52.50
48806;DHT22;34625;47.176;27.548;2023-04-29T02:27:39;20.50;52.60
48806;DHT22;34625;47.176;27.548;2023-04-29T02:30:06;20.40;52.50
48806;DHT22;34625;47.176;27.548;2023-04-29T02:32:32;20.30;52.50
48806;DHT22;34625;47.176;27.548;2023-04-29T02:34:58;20.50;52.50
48806;DHT22;34625;47.176;27.548;2023-04-29T02:37:24;20.40;52.50
48806;DHT22;34625;47.176;27.548;2023-04-29T02:39:50;20.40;52.50
48806;DHT22;34625;47.176;27.548;2023-04-29T02:42:18;20.40;52.50
48806;DHT22;34625;47.176;27.548;2023-04-29T02:44:45;20.40;52.40
48806;DHT22;34625;47.176;27.548;2023-04-29T02:47:11;20.30;52.30
48806;DHT22;34625;47.176;27.548;2023-04-29T02:49:37;20.40;52.30
48806;DHT22;34625;47.176;27.548;2023-04-29T02:52:03;20.30;52.20
48806;DHT22;34625;47.176;27.548;2023-04-29T02:54:29;20.30;52.10
48806;DHT22;34625;47.176;27.548;2023-04-29T02:56:56;20.40;52.00
48806;DHT22;34625;47.176;27.548;2023-04-29T02:59:23;20.40;52.00
48806;DHT22;34625;47.176;27.548;2023-04-29T03:01:49;20.50;52.00
48806;DHT22;34625;47.176;27.548;2023-04-29T03:04:15;20.50;52.00
48806;DHT22;34625;47.176;27.548;2023-04-29T03:06:41;20.50;52.00
48806;DHT22;34625;47.176;27.548;2023-04-29T03:09:10;20.40;51.90
48806;DHT22;34625;47.176;27.548;2023-04-29T03:11:37;20.40;51.90
48806;DHT22;34625;47.176;27.548;2023-04-29T03:14:04;20.20;51.90
48806;DHT22;34625;47.176;27.548;2023-04-29T03:16:30;20.30;52.00
48806;DHT22;34625;47.176;27.548;2023-04-29T03:18:56;20.40;52.00
48806;DHT22;34625;47.176;27.548;2023-04-29T03:21:23;20.30;52.00
48806;DHT22;34625;47.176;27.548;2023-04-29T03:23:51;20.30;52.10
48806;DHT22;34625;47.176;27.548;2023-04-29T03:26:23;20.30;52.00
48806;DHT22;34625;47.176;27.548;2023-04-29T03:28:50;20.30;52.00
48806;DHT22;34625;47.176;27.548;2023-04-29T03:31:16;20.30;52.00
48806;DHT22;34625;47.176;27.548;2023-04-29T03:33:43;20.30;52.00
48806;DHT22;34625;47.176;27.548;2023-04-29T03:36:09;20.30;51.90
48806;DHT22;34625;47.176;27.548;2023-04-29T03:39:04;20.20;51.70
48806;DHT22;34625;47.176;27.548;2023-04-29T03:41:31;20.30;51.60
48806;DHT22;34625;47.176;27.548;2023-04-29T03:43:57;20.30;51.50
48806;DHT22;34625;47.176;27.548;2023-04-29T03:46:27;20.40;51.40
48806;DHT22;34625;47.176;27.548;2023-04-29T03:48:53;20.30;51.20
48806;DHT22;34625;47.176;27.548;2023-04-29T03:51:23;20.50;51.40
48806;DHT22;34625;47.176;27.548;2023-04-29T03:53:53;20.60;51.10
48806;DHT22;34625;47.176;27.548;2023-04-29T03:56:21;20.90;50.50
48806;DHT22;34625;47.176;27.548;2023-04-29T03:58:48;21.00;50.00
48806;DHT22;34625;47.176;27.548;2023-04-29T04:01:14;21.00;49.70
48806;DHT22;34625;47.176;27.548;2023-04-29T04:03:43;21.10;49.50
48806;DHT22;34625;47.176;27.548;2023-04-29T04:06:10;21.40;49.50
48806;DHT22;34625;47.176;27.548;2023-04-29T04:08:36;21.40;49.30
48806;DHT22;34625;47.176;27.548;2023-04-29T04:11:12;21.20;49.30
48806;DHT22;34625;47.176;27.548;2023-04-29T04:14:01;21.20;52.30
48806;DHT22;34625;47.176;27.548;2023-04-29T04:16:27;21.90;54.00
48806;DHT22;34625;47.176;27.548;2023-04-29T04:18:53;22.10;53.00
48806;DHT22;34625;47.176;27.548;2023-04-29T04:21:19;22.30;51.30
48806;DHT22;34625;47.176;27.548;2023-04-29T04:23:53;22.30;47.50
48806;DHT22;34625;47.176;27.548;2023-04-29T04:26:22;22.20;46.90
48806;DHT22;34625;47.176;27.548;2023-04-29T04:29:07;22.10;45.80
48806;DHT22;34625;47.176;27.548;2023-04-29T04:31:47;21.80;45.60
48806;DHT22;34625;47.176;27.548;2023-04-29T04:34:14;21.80;45.90
48806;DHT22;34625;47.176;27.548;2023-04-29T04:36:40;21.60;46.70
48806;DHT22;34625;47.176;27.548;2023-04-29T04:39:07;21.60;47.30
48806;DHT22;34625;47.176;27.548;2023-04-29T04:41:33;21.50;47.70
48806;DHT22;34625;47.176;27.548;2023-04-29T04:44:00;21.50;48.10
48806;DHT22;34625;47.176;27.548;2023-04-29T04:46:38;21.50;48.60
48806;DHT22;34625;47.176;27.548;2023-04-29T04:49:11;21.60;48.80
48806;DHT22;34625;47.176;27.548;2023-04-29T04:51:45;21.50;49.10
48806;DHT22;34625;47.176;27.548;2023-04-29T04:54:13;21.40;49.00
48806;DHT22;34625;47.176;27.548;2023-04-29T04:56:39;21.50;49.60
48806;DHT22;34625;47.176;27.548;2023-04-29T04:59:06;21.40;46.60
48806;DHT22;34625;47.176;27.548;2023-04-29T05:01:35;21.50;47.30
48806;DHT22;34625;47.176;27.548;2023-04-29T05:04:02;21.60;47.50
48806;DHT22;34625;47.176;27.548;2023-04-29T05:06:29;21.60;47.70
48806;DHT22;34625;47.176;27.548;2023-04-29T05:08:56;21.80;44.70
48806;DHT22;34625;47.176;27.548;2023-04-29T05:11:23;21.70;43.20
48806;DHT22;34625;47.176;27.548;2023-04-29T05:14:03;21.80;43.20
48806;DHT22;34625;47.176;27.548;2023-04-29T05:16:30;21.70;44.10
48806;DHT22;34625;47.176;27.548;2023-04-29T05:18:56;21.70;43.60
48806;DHT22;34625;47.176;27.548;2023-04-29T05:21:27;21.70;45.10
48806;DHT22;34625;47.176;27.548;2023-04-29T05:23:53;21.70;45.20
48806;DHT22;34625;47.176;27.548;2023-04-29T05:26:19;21.70;41.80
48806;DHT22;34625;47.176;27.548;2023-04-29T05:28:46;21.80;45.50
48806;DHT22;34625;47.176;27.548;2023-04-29T05:31:13;21.90;46.90
48806;DHT22;34625;47.176;27.548;2023-04-29T05:33:39;21.80;47.70
48806;DHT22;34625;47.176;27.548;2023-04-29T05:36:05;22.00;48.10
48806;DHT22;34625;47.176;27.548;2023-04-29T05:38:32;21.90;49.40
48806;DHT22;34625;47.176;27.548;2023-04-29T05:41:05;21.90;46.10
48806;DHT22;34625;47.176;27.548;2023-04-29T05:43:46;22.00;45.40
48806;DHT22;34625;47.176;27.548;2023-04-29T05:46:13;21.90;44.60
48806;DHT22;34625;47.176;27.548;2023-04-29T05:48:39;21.90;47.20
48806;DHT22;34625;47.176;27.548;2023-04-29T05:51:05;21.90;44.40
48806;DHT22;34625;47.176;27.548;2023-04-29T05:53:32;21.90;42.40
48806;DHT22;34625;47.176;27.548;2023-04-29T05:55:58;22.00;53.30
48806;DHT22;34625;47.176;27.548;2023-04-29T05:58:24;22.10;55.10
48806;DHT22;34625;47.176;27.548;2023-04-29T06:00:51;22.20;53.80
48806;DHT22;34625;47.176;27.548;2023-04-29T06:03:24;22.20;54.90
48806;DHT22;34625;47.176;27.548;2023-04-29T06:05:57;22.30;53.70
48806;DHT22;34625;47.176;27.548;2023-04-29T06:08:45;22.20;53.00
48806;DHT22;34625;47.176;27.548;2023-04-29T06:11:22;22.40;52.60
48806;DHT22;34625;47.176;27.548;2023-04-29T06:13:49;22.40;50.90
48806;DHT22;34625;47.176;27.548;2023-04-29T06:16:15;22.30;50.20
48806;DHT22;34625;47.176;27.548;2023-04-29T06:18:41;22.40;49.60
48806;DHT22;34625;47.176;27.548;2023-04-29T06:21:07;22.40;49.40
48806;DHT22;34625;47.176;27.548;2023-04-29T06:23:33;22.40;49.50
48806;DHT22;34625;47.176;27.548;2023-04-29T06:26:04;22.50;49.70
48806;DHT22;34625;47.176;27.548;2023-04-29T06:28:31;22.60;49.60
48806;DHT22;34625;47.176;27.548;2023-04-29T06:30:57;22.60;49.60
48806;DHT22;34625;47.176;27.548;2023-04-29T06:33:23;22.60;49.30
48806;DHT22;34625;47.176;27.548;2023-04-29T06:35:49;22.60;48.80
48806;DHT22;34625;47.176;27.548;2023-04-29T06:38:34;22.50;48.80
48806;DHT22;34625;47.176;27.548;2023-04-29T06:41:13;22.50;48.90
48806;DHT22;34625;47.176;27.548;2023-04-29T06:43:48;22.70;49.00
48806;DHT22;34625;47.176;27.548;2023-04-29T06:46:14;22.60;48.70
48806;DHT22;34625;47.176;27.548;2023-04-29T06:48:59;22.60;48.50
48806;DHT22;34625;47.176;27.548;2023-04-29T06:51:25;22.50;48.50
48806;DHT22;34625;47.176;27.548;2023-04-29T06:53:53;22.60;48.30
48806;DHT22;34625;47.176;27.548;2023-04-29T06:56:20;22.40;48.60
48806;DHT22;34625;47.176;27.548;2023-04-29T06:58:46;22.70;49.70
48806;DHT22;34625;47.176;27.548;2023-04-29T07:01:13;22.50;49.00
48806;DHT22;34625;47.176;27.548;2023-04-29T07:03:39;22.60;48.40
48806;DHT22;34625;47.176;27.548;2023-04-29T07:06:05;22.50;47.30
48806;DHT22;34625;47.176;27.548;2023-04-29T07:08:31;22.60;48.10
48806;DHT22;34625;47.176;27.548;2023-04-29T07:10:58;22.60;47.60
48806;DHT22;34625;47.176;27.548;2023-04-29T07:13:24;22.70;46.80
48806;DHT22;34625;47.176;27.548;2023-04-29T07:15:51;22.60;47.80
48806;DHT22;34625;47.176;27.548;2023-04-29T07:18:17;22.60;47.70
48806;DHT22;34625;47.176;27.548;2023-04-29T07:20:43;22.60;46.70
48806;DHT22;34625;47.176;27.548;2023-04-29T07:23:10;22.60;45.70
48806;DHT22;34625;47.176;27.548;2023-04-29T07:25:36;22.50;45.20
48806;DHT22;34625;47.176;27.548;2023-04-29T07:28:04;22.50;46.40
48806;DHT22;34625;47.176;27.548;2023-04-29T07:30:30;22.50;44.70
48806;DHT22;34625;47.176;27.548;2023-04-29T07:32:56;22.50;47.50
48806;DHT22;34625;47.176;27.548;2023-04-29T07:35:23;22.50;44.90
48806;DHT22;34625;47.176;27.548;2023-04-29T07:37:49;22.60;46.90
48806;DHT22;34625;47.176;27.548;2023-04-29T07:40:15;22.50;47.50
48806;DHT22;34625;47.176;27.548;2023-04-29T07:42:42;22.40;47.80
48806;DHT22;34625;47.176;27.548;2023-04-29T07:45:09;22.70;48.00
48806;DHT22;34625;47.176;27.548;2023-04-29T07:47:36;22.60;47.90
48806;DHT22;34625;47.176;27.548;2023-04-29T07:50:02;22.60;48.00
48806;DHT22;34625;47.176;27.548;2023-04-29T07:52:30;22.70;48.30
48806;DHT22;34625;47.176;27.548;2023-04-29T07:54:56;22.60;47.50
48806;DHT22;34625;47.176;27.548;2023-04-29T07:57:22;22.50;48.40
48806;DHT22;34625;47.176;27.548;2023-04-29T07:59:52;22.70;50.00
48806;DHT22;34625;47.176;27.548;2023-04-29T08:02:19;22.70;49.70
48806;DHT22;34625;47.176;27.548;2023-04-29T08:04:46;22.60;48.80
48806;DHT22;34625;47.176;27.548;2023-04-29T08:07:13;22.60;48.00
48806;DHT22;34625;47.176;27.548;2023-04-29T08:09:39;22.70;48.50
48806;DHT22;34625;47.176;27.548;2023-04-29T08:12:05;22.80;49.40
48806;DHT22;34625;47.176;27.548;2023-04-29T08:14:32;22.80;45.80
48806;DHT22;34625;47.176;27.548;2023-04-29T08:16:59;22.60;48.10
48806;DHT22;34625;47.176;27.548;2023-04-29T08:19:25;22.70;49.40
48806;DHT22;34625;47.176;27.548;2023-04-29T08:21:51;22.70;49.50
48806;DHT22;34625;47.176;27.548;2023-04-29T08:24:17;22.70;50.40
48806;DHT22;34625;47.176;27.548;2023-04-29T08:26:43;22.80;49.80
48806;DHT22;34625;47.176;27.548;2023-04-29T08:29:09;22.70;50.50
48806;DHT22;34625;47.176;27.548;2023-04-29T08:31:35;22.60;51.10
48806;DHT22;34625;47.176;27.548;2023-04-29T08:34:01;22.80;51.20
48806;DHT22;34625;47.176;27.548;2023-04-29T08:36:27;22.80;51.90
48806;DHT22;34625;47.176;27.548;2023-04-29T08:38:55;22.80;52.30
48806;DHT22;34625;47.176;27.548;2023-04-29T08:41:21;22.70;52.00
48806;DHT22;34625;47.176;27.548;2023-04-29T08:43:48;22.80;48.80
48806;DHT22;34625;47.176;27.548;2023-04-29T08:46:14;22.60;50.00
48806;DHT22;34625;47.176;27.548;2023-04-29T08:48:40;22.60;44.10
48806;DHT22;34625;47.176;27.548;2023-04-29T08:51:06;22.60;44.40
48806;DHT22;34625;47.176;27.548;2023-04-29T08:53:33;22.60;44.90
48806;DHT22;34625;47.176;27.548;2023-04-29T08:56:08;22.50;46.20
48806;DHT22;34625;47.176;27.548;2023-04-29T08:58:37;22.90;48.10
48806;DHT22;34625;47.176;27.548;2023-04-29T09:01:07;23.00;49.50
48806;DHT22;34625;47.176;27.548;2023-04-29T09:03:42;23.20;49.30
48806;DHT22;34625;47.176;27.548;2023-04-29T09:06:10;23.30;52.20
48806;DHT22;34625;47.176;27.548;2023-04-29T09:08:38;23.30;52.50
48806;DHT22;34625;47.176;27.548;2023-04-29T09:11:08;23.40;51.70
48806;DHT22;34625;47.176;27.548;2023-04-29T09:13:35;23.40;50.30
48806;DHT22;34625;47.176;27.548;2023-04-29T09:16:01;23.20;47.00
48806;DHT22;34625;47.176;27.548;2023-04-29T09:18:47;23.20;47.40
48806;DHT22;34625;47.176;27.548;2023-04-29T09:23:43;23.10;46.10
48806;DHT22;34625;47.176;27.548;2023-04-29T09:26:10;23.20;48.90
48806;DHT22;34625;47.176;27.548;2023-04-29T09:28:36;23.10;49.40
48806;DHT22;34625;47.176;27.548;2023-04-29T09:31:04;23.20;49.70
48806;DHT22;34625;47.176;27.548;2023-04-29T09:33:52;23.20;50.10
48806;DHT22;34625;47.176;27.548;2023-04-29T09:36:51;23.10;50.80
48806;DHT22;34625;47.176;27.548;2023-04-29T09:39:25;23.30;48.90
48806;DHT22;34625;47.176;27.548;2023-04-29T09:44:22;23.80;60.40
48806;DHT22;34625;47.176;27.548;2023-04-29T09:46:57;23.90;48.80
48806;DHT22;34625;47.176;27.548;2023-04-29T09:49:26;24.30;56.80
48806;DHT22;34625;47.176;27.548;2023-04-29T09:51:55;24.50;58.30
48806;DHT22;34625;47.176;27.548;2023-04-29T09:54:22;24.80;56.40
48806;DHT22;34625;47.176;27.548;2023-04-29T09:56:52;24.90;46.60
48806;DHT22;34625;47.176;27.548;2023-04-29T09:59:18;24.90;55.00
48806;DHT22;34625;47.176;27.548;2023-04-29T10:01:49;24.70;55.10
48806;DHT22;34625;47.176;27.548;2023-04-29T10:04:17;24.70;56.10
48806;DHT22;34625;47.176;27.548;2023-04-29T10:06:49;24.70;53.70
48806;DHT22;34625;47.176;27.548;2023-04-29T10:09:16;24.60;52.90
48806;DHT22;34625;47.176;27.548;2023-04-29T10:11:46;24.50;51.70
48806;DHT22;34625;47.176;27.548;2023-04-29T10:14:21;24.40;50.30
48806;DHT22;34625;47.176;27.548;2023-04-29T10:17:15;24.40;51.90
48806;DHT22;34625;47.176;27.548;2023-04-29T10:22:46;24.30;52.30
48806;DHT22;34625;47.176;27.548;2023-04-29T10:25:17;24.30;51.50
48806;DHT22;34625;47.176;27.548;2023-04-29T10:27:45;24.30;51.20
48806;DHT22;34625;47.176;27.548;2023-04-29T10:30:12;24.20;52.30
48806;DHT22;34625;47.176;27.548;2023-04-29T10:32:40;24.30;50.20
48806;DHT22;34625;47.176;27.548;2023-04-29T10:35:10;24.30;52.40
48806;DHT22;34625;47.176;27.548;2023-04-29T10:37:37;24.20;50.60
48806;DHT22;34625;47.176;27.548;2023-04-29T10:45:27;24.20;52.60
48806;DHT22;34625;47.176;27.548;2023-04-29T10:50:32;24.00;52.50
48806;DHT22;34625;47.176;27.548;2023-04-29T10:53:03;24.10;54.00
48806;DHT22;34625;47.176;27.548;2023-04-29T10:55:30;24.10;57.80
48806;DHT22;34625;47.176;27.548;2023-04-29T10:58:02;24.00;58.00
48806;DHT22;34625;47.176;27.548;2023-04-29T11:00:33;24.00;57.30
48806;DHT22;34625;47.176;27.548;2023-04-29T11:03:01;24.10;51.40
48806;DHT22;34625;47.176;27.548;2023-04-29T11:05:35;24.00;55.40
48806;DHT22;34625;47.176;27.548;2023-04-29T11:08:11;23.90;53.80
48806;DHT22;34625;47.176;27.548;2023-04-29T11:10:42;24.00;51.80
48806;DHT22;34625;47.176;27.548;2023-04-29T11:13:27;24.00;54.60
48806;DHT22;34625;47.176;27.548;2023-04-29T11:16:04;24.00;54.80
48806;DHT22;34625;47.176;27.548;2023-04-29T11:18:31;24.00;54.60
48806;DHT22;34625;47.176;27.548;2023-04-29T11:23:30;24.00;52.90
48806;DHT22;34625;47.176;27.548;2023-04-29T11:25:56;24.10;49.50
48806;DHT22;34625;47.176;27.548;2023-04-29T11:28:26;24.00;49.60
48806;DHT22;34625;47.176;27.548;2023-04-29T11:30:53;24.00;51.20
48806;DHT22;34625;47.176;27.548;2023-04-29T11:33:19;24.00;51.00
48806;DHT22;34625;47.176;27.548;2023-04-29T11:35:45;23.90;50.80
48806;DHT22;34625;47.176;27.548;2023-04-29T11:38:12;24.10;52.50
48806;DHT22;34625;47.176;27.548;2023-04-29T11:40:50;24.10;52.30
48806;DHT22;34625;47.176;27.548;2023-04-29T11:43:17;24.10;51.60
48806;DHT22;34625;47.176;27.548;2023-04-29T11:45:45;24.00;51.90
48806;DHT22;34625;47.176;27.548;2023-04-29T11:48:21;24.00;51.50
48806;DHT22;34625;47.176;27.548;2023-04-29T11:50:49;24.00;52.40
48806;DHT22;34625;47.176;27.548;2023-04-29T11:53:15;24.00;49.70
48806;DHT22;34625;47.176;27.548;2023-04-29T11:55:44;23.90;51.70
48806;DHT22;34625;47.176;27.548;2023-04-29T11:58:11;24.00;50.30
48806;DHT22;34625;47.176;27.548;2023-04-29T12:00:37;23.90;52.00
48806;DHT22;34625;47.176;27.548;2023-04-29T12:03:15;23.90;50.00
48806;DHT22;34625;47.176;27.548;2023-04-29T12:05:52;23.90;52.40
48806;DHT22;34625;47.176;27.548;2023-04-29T12:08:28;23.90;51.70
48806;DHT22;34625;47.176;27.548;2023-04-29T12:11:08;23.90;51.80
48806;DHT22;34625;47.176;27.548;2023-04-29T12:13:34;23.80;51.60
48806;DHT22;34625;47.176;27.548;2023-04-29T12:16:01;23.80;52.10
48806;DHT22;34625;47.176;27.548;2023-04-29T12:18:28;23.90;52.30
48806;DHT22;34625;47.176;27.548;2023-04-29T12:20:55;23.90;52.20
48806;DHT22;34625;47.176;27.548;2023-04-29T12:23:25;23.90;52.40
48806;DHT22;34625;47.176;27.548;2023-04-29T12:26:02;23.80;52.00
48806;DHT22;34625;47.176;27.548;2023-04-29T12:28:28;23.80;52.20
48806;DHT22;34625;47.176;27.548;2023-04-29T12:31:03;23.90;52.30
48806;DHT22;34625;47.176;27.548;2023-04-29T12:33:29;23.80;52.10
48806;DHT22;34625;47.176;27.548;2023-04-29T12:35:59;23.80;51.90
48806;DHT22;34625;47.176;27.548;2023-04-29T12:38:29;23.90;52.00
48806;DHT22;34625;47.176;27.548;2023-04-29T12:40:58;23.80;51.20
48806;DHT22;34625;47.176;27.548;2023-04-29T12:43:27;23.80;51.20
48806;DHT22;34625;47.176;27.548;2023-04-29T12:46:07;23.90;52.20
48806;DHT22;34625;47.176;27.548;2023-04-29T12:48:36;23.80;52.10
48806;DHT22;34625;47.176;27.548;2023-04-29T12:51:04;23.90;52.20
48806;DHT22;34625;47.176;27.548;2023-04-29T12:53:30;23.90;50.30
48806;DHT22;34625;47.176;27.548;2023-04-29T12:55:57;23.80;51.70
48806;DHT22;34625;47.176;27.548;2023-04-29T12:58:23;23.80;49.50
48806;DHT22;34625;47.176;27.548;2023-04-29T13:00:49;23.70;51.70
48806;DHT22;34625;47.176;27.548;2023-04-29T13:03:15;23.80;50.60
48806;DHT22;34625;47.176;27.548;2023-04-29T13:05:45;23.70;52.00
48806;DHT22;34625;47.176;27.548;2023-04-29T13:08:15;23.70;51.60
48806;DHT22;34625;47.176;27.548;2023-04-29T13:10:41;23.60;51.90
48806;DHT22;34625;47.176;27.548;2023-04-29T13:13:07;23.50;52.00
48806;DHT22;34625;47.176;27.548;2023-04-29T13:15:37;23.50;50.00
48806;DHT22;34625;47.176;27.548;2023-04-29T13:18:06;23.60;49.80
48806;DHT22;34625;47.176;27.548;2023-04-29T13:20:32;23.50;52.00
48806;DHT22;34625;47.176;27.548;2023-04-29T13:22:58;23.60;51.40
48806;DHT22;34625;47.176;27.548;2023-04-29T13:25:24;23.50;51.90
48806;DHT22;34625;47.176;27.548;2023-04-29T13:27:50;23.50;51.90
48806;DHT22;34625;47.176;27.548;2023-04-29T13:30:16;23.60;51.90
48806;DHT22;34625;47.176;27.548;2023-04-29T13:32:42;23.60;52.10
48806;DHT22;34625;47.176;27.548;2023-04-29T13:35:09;23.50;52.00
48806;DHT22;34625;47.176;27.548;2023-04-29T13:37:35;23.60;52.10
48806;DHT22;34625;47.176;27.548;2023-04-29T13:40:02;23.60;52.20
48806;DHT22;34625;47.176;27.548;2023-04-29T13:42:29;23.60;52.10
48806;DHT22;34625;47.176;27.548;2023-04-29T13:44:55;23.60;52.10
48806;DHT22;34625;47.176;27.548;2023-04-29T13:47:24;23.60;52.10
48806;DHT22;34625;47.176;27.548;2023-04-29T13:49:50;23.50;52.10
48806;DHT22;34625;47.176;27.548;2023-04-29T13:52:16;23.60;52.00
48806;DHT22;34625;47.176;27.548;2023-04-29T13:54:42;23.60;52.20
48806;DHT22;34625;47.176;27.548;2023-04-29T13:57:08;23.60;52.20
48806;DHT22;34625;47.176;27.548;2023-04-29T13:59:34;23.60;52.10
48806;DHT22;34625;47.176;27.548;2023-04-29T14:02:01;23.50;52.00
48806;DHT22;34625;47.176;27.548;2023-04-29T14:04:28;23.60;52.20
48806;DHT22;34625;47.176;27.548;2023-04-29T14:06:55;23.60;51.90
48806;DHT22;34625;47.176;27.548;2023-04-29T14:09:21;23.60;52.20
48806;DHT22;34625;47.176;27.548;2023-04-29T14:11:48;23.40;50.80
48806;DHT22;34625;47.176;27.548;2023-04-29T14:14:15;23.50;52.30
48806;DHT22;34625;47.176;27.548;2023-04-29T14:16:42;23.50;51.70
48806;DHT22;34625;47.176;27.548;2023-04-29T14:19:08;23.40;49.80
48806;DHT22;34625;47.176;27.548;2023-04-29T14:21:34;23.30;52.10
48806;DHT22;34625;47.176;27.548;2023-04-29T14:24:06;23.30;52.40
48806;DHT22;34625;47.176;27.548;2023-04-29T14:26:57;23.30;52.20
48806;DHT22;34625;47.176;27.548;2023-04-29T14:29:23;23.40;50.90
48806;DHT22;34625;47.176;27.548;2023-04-29T14:31:49;23.40;49.20
48806;DHT22;34625;47.176;27.548;2023-04-29T14:34:15;23.30;46.90
48806;DHT22;34625;47.176;27.548;2023-04-29T14:36:41;23.30;47.30
48806;DHT22;34625;47.176;27.548;2023-04-29T14:39:07;23.30;46.40
48806;DHT22;34625;47.176;27.548;2023-04-29T14:41:33;23.30;47.00
48806;DHT22;34625;47.176;27.548;2023-04-29T14:43:59;23.40;46.40
48806;DHT22;34625;47.176;27.548;2023-04-29T14:46:26;23.20;43.00
48806;DHT22;34625;47.176;27.548;2023-04-29T14:48:53;23.50;45.20
48806;DHT22;34625;47.176;27.548;2023-04-29T14:51:19;23.90;47.70
48806;DHT22;34625;47.176;27.548;2023-04-29T14:53:45;24.10;47.10
48806;DHT22;34625;47.176;27.548;2023-04-29T14:56:11;24.30;44.40
48806;DHT22;34625;47.176;27.548;2023-04-29T14:58:38;24.20;43.90
48806;DHT22;34625;47.176;27.548;2023-04-29T15:01:04;24.10;40.70
48806;DHT22;34625;47.176;27.548;2023-04-29T15:03:30;24.00;42.40
48806;DHT22;34625;47.176;27.548;2023-04-29T15:05:56;23.90;40.80
48806;DHT22;34625;47.176;27.548;2023-04-29T15:08:23;24.00;43.50
48806;DHT22;34625;47.176;27.548;2023-04-29T15:10:49;23.90;43.30
48806;DHT22;34625;47.176;27.548;2023-04-29T15:13:15;23.80;41.90
48806;DHT22;34625;47.176;27.548;2023-04-29T15:15:41;23.80;42.70
48806;DHT22;34625;47.176;27.548;2023-04-29T15:18:07;23.80;42.50
48806;DHT22;34625;47.176;27.548;2023-04-29T15:20:36;23.80;42.70
48806;DHT22;34625;47.176;27.548;2023-04-29T15:23:06;23.80;43.90
48806;DHT22;34625;47.176;27.548;2023-04-29T15:25:33;23.80;44.20
48806;DHT22;34625;47.176;27.548;2023-04-29T15:28:01;23.70;44.50
48806;DHT22;34625;47.176;27.548;2023-04-29T15:30:29;23.70;44.30
48806;DHT22;34625;47.176;27.548;2023-04-29T15:32:56;23.70;45.70
48806;DHT22;34625;47.176;27.548;2023-04-29T15:35:22;23.60;45.20
48806;DHT22;34625;47.176;27.548;2023-04-29T15:37:48;23.50;46.30
48806;DHT22;34625;47.176;27.548;2023-04-29T15:40:14;23.50;46.50
48806;DHT22;34625;47.176;27.548;2023-04-29T15:42:42;23.50;46.50
48806;DHT22;34625;47.176;27.548;2023-04-29T15:45:08;23.60;46.70
48806;DHT22;34625;47.176;27.548;2023-04-29T15:47:35;23.60;47.10
48806;DHT22;34625;47.176;27.548;2023-04-29T15:50:04;23.40;46.30